createdAt,value
2022-11-04T00:01:42.481Z,25.88
2022-11-04T00:04:11.810Z,24.88
2022-11-04T00:06:40.314Z,26.83
2022-11-04T00:09:10.724Z,33.33
2022-11-04T00:11:57.233Z,31.08
2022-11-04T00:14:25.239Z,29.60
2022-11-04T00:17:11.212Z,29.30
2022-11-04T00:19:57.877Z,26.13
2022-11-04T00:22:44.463Z,29.80
2022-11-04T00:25:31.682Z,27.08
2022-11-04T00:28:32.169Z,26.73
2022-11-04T00:31:22.149Z,21.67
2022-11-04T00:33:51.322Z,27.40
2022-11-04T00:36:19.788Z,29.58
2022-11-04T00:38:47.832Z,28.02
2022-11-04T00:41:28.238Z,25.23
2022-11-04T00:44:04.468Z,29.77
2022-11-04T00:46:33.817Z,28.88
2022-11-04T00:49:02.000Z,36.22
2022-11-04T00:51:29.684Z,27.88
2022-11-04T00:54:00.988Z,29.70
2022-11-04T00:56:28.628Z,28.83
2022-11-04T00:58:59.044Z,23.10
2022-11-04T01:01:26.807Z,33.38
2022-11-04T01:03:55.949Z,29.75
2022-11-04T01:06:25.210Z,24.77
2022-11-04T01:08:57.355Z,30.83
2022-11-04T01:11:25.275Z,27.02
2022-11-04T01:13:53.325Z,22.60
2022-11-04T01:16:21.182Z,29.13
2022-11-04T01:18:49.728Z,27.02
2022-11-04T01:21:17.971Z,30.77
2022-11-04T01:23:46.869Z,25.35
2022-11-04T01:26:21.053Z,26.33
2022-11-04T01:28:49.114Z,25.67
2022-11-04T01:31:21.609Z,23.38
2022-11-04T01:33:51.211Z,25.30
2022-11-04T01:36:20.094Z,22.38
2022-11-04T01:38:49.232Z,29.92
2022-11-04T01:41:28.758Z,25.80
2022-11-04T01:44:23.982Z,21.88
2022-11-04T01:46:54.062Z,31.13
2022-11-04T01:49:39.181Z,22.77
2022-11-04T01:52:16.027Z,24.60
2022-11-04T01:54:48.090Z,22.58
2022-11-04T01:57:22.812Z,23.55
2022-11-04T01:59:50.785Z,24.67
2022-11-04T02:02:18.520Z,21.23
2022-11-04T02:04:47.142Z,26.67
2022-11-04T02:07:14.930Z,21.33
2022-11-04T02:09:44.274Z,23.70
2022-11-04T02:12:30.693Z,22.17
2022-11-04T02:14:59.101Z,24.90
2022-11-04T02:18:03.237Z,20.92
2022-11-04T02:20:49.469Z,21.00
2022-11-04T02:23:49.843Z,29.98
2022-11-04T02:26:32.819Z,24.48
2022-11-04T02:29:20.528Z,25.60
2022-11-04T02:31:55.234Z,18.52
2022-11-04T02:35:00.229Z,25.25
2022-11-04T02:37:56.571Z,20.52
2022-11-04T02:40:56.235Z,23.13
2022-11-04T02:43:47.060Z,18.38
2022-11-04T02:46:33.555Z,22.38
2022-11-04T02:49:12.806Z,21.73
2022-11-04T02:51:53.709Z,23.15
2022-11-04T02:54:31.607Z,22.63
2022-11-04T02:57:02.156Z,19.50
2022-11-04T03:00:00.083Z,20.33
2022-11-04T03:02:56.055Z,22.13
2022-11-04T03:05:32.920Z,25.77
2022-11-04T03:08:05.852Z,18.60
2022-11-04T03:10:38.523Z,19.27
2022-11-04T03:13:17.618Z,22.23
2022-11-04T03:15:53.072Z,22.02
2022-11-04T03:18:36.459Z,21.33
2022-11-04T03:21:09.584Z,23.33
2022-11-04T03:23:37.736Z,23.02
2022-11-04T03:26:33.054Z,25.42
2022-11-04T03:29:58.348Z,24.38
2022-11-04T03:35:28.019Z,25.75
2022-11-04T03:37:57.097Z,19.23
2022-11-04T03:40:25.811Z,25.10
2022-11-04T03:43:12.640Z,19.45
2022-11-04T03:45:42.045Z,19.23
2022-11-04T03:48:10.166Z,21.85
2022-11-04T03:50:44.179Z,21.98
2022-11-04T03:53:13.991Z,21.40
2022-11-04T03:56:10.780Z,17.38
2022-11-04T03:58:53.331Z,21.70
2022-11-04T04:01:23.936Z,19.23
2022-11-04T04:04:23.449Z,22.27
2022-11-04T04:06:57.046Z,19.90
2022-11-04T04:12:06.294Z,18.90
2022-11-04T04:15:03.223Z,21.08
2022-11-04T04:17:38.285Z,22.15
2022-11-04T04:20:19.469Z,18.48
2022-11-04T04:22:54.647Z,19.50
2022-11-04T04:25:45.621Z,18.92
2022-11-04T04:28:16.207Z,17.42
2022-11-04T04:30:46.129Z,24.23
2022-11-04T04:33:17.512Z,19.73
2022-11-04T04:35:50.768Z,20.30
2022-11-04T04:38:43.732Z,20.75
2022-11-04T04:41:46.862Z,23.23
2022-11-04T04:44:39.080Z,18.88
2022-11-04T04:47:08.979Z,16.80
2022-11-04T04:49:36.771Z,16.02
2022-11-04T04:52:08.112Z,18.77
2022-11-04T04:54:35.967Z,18.90
2022-11-04T04:57:03.929Z,20.42
2022-11-04T04:59:31.910Z,19.33
2022-11-04T05:01:59.941Z,16.35
2022-11-04T05:04:27.885Z,22.40
2022-11-04T05:06:55.836Z,17.88
2022-11-04T05:09:23.573Z,16.63
2022-11-04T05:11:51.451Z,21.42
2022-11-04T05:14:19.783Z,22.05
2022-11-04T05:16:47.499Z,24.92
2022-11-04T05:19:15.458Z,18.52
2022-11-04T05:21:43.212Z,16.88
2022-11-04T05:24:11.654Z,25.52
2022-11-04T05:26:39.310Z,19.17
2022-11-04T05:29:07.274Z,18.40
2022-11-04T05:31:35.022Z,15.07
2022-11-04T05:34:03.629Z,17.52
2022-11-04T05:36:33.162Z,17.75
2022-11-04T05:39:01.152Z,20.85
2022-11-04T05:41:28.963Z,15.55
2022-11-04T05:44:02.098Z,18.13
2022-11-04T05:46:30.836Z,16.20
2022-11-04T05:48:58.864Z,21.05
2022-11-04T05:51:28.573Z,21.55
2022-11-04T05:53:56.643Z,22.30
2022-11-04T05:56:24.328Z,27.35
2022-11-04T05:58:52.469Z,22.73
2022-11-04T06:01:55.869Z,23.13
2022-11-04T06:04:23.943Z,18.63
2022-11-04T06:06:51.896Z,21.08
2022-11-04T06:09:19.864Z,17.35
2022-11-04T06:11:47.664Z,23.52
2022-11-04T06:14:18.881Z,22.27
2022-11-04T06:16:46.737Z,20.70
2022-11-04T06:19:16.176Z,17.95
2022-11-04T06:21:44.143Z,23.50
2022-11-04T06:24:12.112Z,20.73
2022-11-04T06:26:39.838Z,22.35
2022-11-04T06:29:07.897Z,24.60
2022-11-04T06:31:35.951Z,18.38
2022-11-04T06:34:04.526Z,22.75
2022-11-04T06:36:32.151Z,17.70
2022-11-04T06:39:04.678Z,18.20
2022-11-04T06:41:32.891Z,21.60
2022-11-04T06:44:01.138Z,22.02
2022-11-04T06:46:39.698Z,20.27
2022-11-04T06:49:16.255Z,38.95
2022-11-04T06:51:44.032Z,29.88
2022-11-04T06:54:12.081Z,30.45
2022-11-04T06:56:40.362Z,28.80
2022-11-04T06:59:09.745Z,22.85
2022-11-04T07:01:37.772Z,24.70
2022-11-04T07:04:06.004Z,23.27
2022-11-04T07:06:34.788Z,24.27
2022-11-04T07:09:05.001Z,22.80
2022-11-04T07:11:33.856Z,20.73
2022-11-04T07:14:01.789Z,23.23
2022-11-04T07:16:29.655Z,25.08
2022-11-04T07:18:57.725Z,27.92
2022-11-04T07:21:25.573Z,27.55
2022-11-04T07:23:53.608Z,27.15
2022-11-04T07:26:21.829Z,25.23
2022-11-04T07:28:49.843Z,28.55
2022-11-04T07:31:18.155Z,22.50
2022-11-04T07:33:51.482Z,23.90
2022-11-04T07:36:19.599Z,21.43
2022-11-04T07:38:48.399Z,23.38
2022-11-04T07:41:17.039Z,23.63
2022-11-04T07:43:49.930Z,22.40
2022-11-04T07:46:18.086Z,22.60
2022-11-04T07:48:46.538Z,26.48
2022-11-04T07:51:17.807Z,33.30
2022-11-04T07:53:46.719Z,25.10
2022-11-04T07:56:14.816Z,33.78
2022-11-04T07:58:43.227Z,26.73
2022-11-04T08:01:15.185Z,25.13
2022-11-04T08:03:43.529Z,22.85
2022-11-04T08:06:13.566Z,17.27
2022-11-04T08:08:43.662Z,21.98
2022-11-04T08:11:18.123Z,20.30
2022-11-04T08:13:47.629Z,24.20
2022-11-04T08:16:19.130Z,21.33
2022-11-04T08:18:48.891Z,22.00
2022-11-04T08:21:17.764Z,21.42
2022-11-04T08:23:46.245Z,20.08
2022-11-04T08:26:17.004Z,20.77
2022-11-04T08:28:45.354Z,21.20
2022-11-04T08:31:15.699Z,20.92
2022-11-04T08:33:44.679Z,26.08
2022-11-04T08:36:21.657Z,20.25
2022-11-04T08:38:49.862Z,17.50
2022-11-04T08:41:20.557Z,18.65
2022-11-04T08:43:48.581Z,23.50
2022-11-04T08:46:16.645Z,24.42
2022-11-04T08:48:46.081Z,20.88
2022-11-04T08:51:19.198Z,20.75
2022-11-04T08:53:47.199Z,22.60
2022-11-04T08:56:27.756Z,22.67
2022-11-04T08:58:58.338Z,21.15
2022-11-04T09:01:34.226Z,19.13
2022-11-04T09:04:04.795Z,17.45
2022-11-04T09:06:36.064Z,24.25
2022-11-04T09:09:05.789Z,28.92
2022-11-04T09:11:36.595Z,27.48
2022-11-04T09:14:05.648Z,25.33
2022-11-04T09:16:34.949Z,25.23
2022-11-04T09:19:03.643Z,21.80
2022-11-04T09:21:31.672Z,23.92
2022-11-04T09:24:00.113Z,21.30
2022-11-04T09:26:28.285Z,23.10
2022-11-04T09:28:58.036Z,24.25
2022-11-04T09:31:28.336Z,21.33
2022-11-04T09:33:56.935Z,22.77
2022-11-04T09:36:25.019Z,18.73
2022-11-04T09:38:53.085Z,21.73
2022-11-04T09:41:42.218Z,21.88
2022-11-04T09:44:59.730Z,21.02
2022-11-04T09:47:27.197Z,18.48
2022-11-04T09:49:59.212Z,20.83
2022-11-04T09:52:31.267Z,19.60
2022-11-04T09:55:14.907Z,19.00
2022-11-04T09:57:42.640Z,20.27
2022-11-04T10:00:16.432Z,23.15
2022-11-04T10:02:58.119Z,44.22
2022-11-04T10:05:47.378Z,32.33
2022-11-04T10:08:37.904Z,25.27
2022-11-04T10:11:19.318Z,19.90
2022-11-04T10:14:17.514Z,20.90
2022-11-04T10:16:48.159Z,22.05
2022-11-04T10:19:47.832Z,19.20
2022-11-04T10:22:30.845Z,19.63
2022-11-04T10:25:04.943Z,21.25
2022-11-04T10:27:37.398Z,18.55
2022-11-04T10:30:25.903Z,20.20
2022-11-04T10:33:03.448Z,17.90
2022-11-04T10:35:34.249Z,16.90
2022-11-04T10:38:22.583Z,17.35
2022-11-04T10:40:55.110Z,18.25
2022-11-04T10:43:34.012Z,29.80
2022-11-04T10:46:26.450Z,21.58
2022-11-04T10:49:08.421Z,17.52
2022-11-04T10:51:36.138Z,16.45
2022-11-04T10:54:08.921Z,20.17
2022-11-04T10:56:45.154Z,15.32
2022-11-04T10:59:20.511Z,17.27
2022-11-04T11:02:00.476Z,15.55
2022-11-04T11:04:33.568Z,16.00
2022-11-04T11:07:12.611Z,17.42
2022-11-04T11:09:54.284Z,16.20
2022-11-04T11:12:50.556Z,17.70
2022-11-04T11:15:26.366Z,15.35
2022-11-04T11:18:17.686Z,15.60
2022-11-04T11:21:03.350Z,13.10
2022-11-04T11:23:46.726Z,14.70
2022-11-04T11:26:20.987Z,16.45
2022-11-04T11:28:59.150Z,17.33
2022-11-04T11:31:37.013Z,18.98
2022-11-04T11:34:13.780Z,16.60
2022-11-04T11:36:44.778Z,18.92
2022-11-04T11:39:13.863Z,17.17
2022-11-04T11:41:59.925Z,15.30
2022-11-04T11:44:38.809Z,17.02
2022-11-04T11:47:18.930Z,18.17
2022-11-04T11:49:46.622Z,15.32
2022-11-04T11:52:33.688Z,20.25
2022-11-04T11:55:11.768Z,17.42
2022-11-04T12:01:05.305Z,16.80
2022-11-04T12:09:37.976Z,14.13
2022-11-04T12:12:26.667Z,16.63
2022-11-04T12:15:03.297Z,15.93
2022-11-04T12:18:10.237Z,16.30
2022-11-04T12:20:48.199Z,14.93
2022-11-04T12:23:45.364Z,12.23
2022-11-04T12:26:27.383Z,14.10
2022-11-04T12:29:27.437Z,14.65
2022-11-04T12:32:27.202Z,19.45
2022-11-04T12:35:19.568Z,14.65
2022-11-04T12:38:09.155Z,13.90
2022-11-04T12:41:37.543Z,14.93
2022-11-04T12:44:22.784Z,14.10
2022-11-04T12:47:03.720Z,12.57
2022-11-04T12:49:46.465Z,12.23
2022-11-04T12:52:52.641Z,13.77
2022-11-04T12:55:44.292Z,15.50
2022-11-04T12:58:32.986Z,14.05
2022-11-04T13:01:42.185Z,16.08
2022-11-04T13:04:14.432Z,13.82
2022-11-04T13:06:54.038Z,12.57
2022-11-04T13:09:51.359Z,14.75
2022-11-04T13:12:23.614Z,15.48
2022-11-04T13:15:01.977Z,15.85
2022-11-04T13:17:39.080Z,14.38
2022-11-04T13:20:14.111Z,15.43
2022-11-04T13:22:45.740Z,12.32
2022-11-04T13:25:38.672Z,18.00
2022-11-04T13:28:13.738Z,19.80
2022-11-04T13:30:59.081Z,16.42
2022-11-04T13:34:08.330Z,15.85
2022-11-04T13:37:08.646Z,17.63
2022-11-04T13:39:48.960Z,14.20
2022-11-04T13:42:34.969Z,15.18
2022-11-04T13:45:18.826Z,16.80
2022-11-04T13:47:58.542Z,16.43
2022-11-04T13:50:51.914Z,17.83
2022-11-04T13:53:19.887Z,14.02
2022-11-04T13:55:51.431Z,13.75
2022-11-04T13:58:25.862Z,14.25
2022-11-04T14:01:26.151Z,13.68
2022-11-04T14:04:05.041Z,14.88
2022-11-04T14:06:48.178Z,15.88
2022-11-04T14:09:41.854Z,11.88
2022-11-04T14:12:17.256Z,13.43
2022-11-04T14:14:52.412Z,14.10
2022-11-04T14:17:35.562Z,17.50
2022-11-04T14:20:06.624Z,14.13
2022-11-04T14:22:59.043Z,14.30
2022-11-04T14:25:32.767Z,16.52
2022-11-04T14:28:16.263Z,16.58
2022-11-04T14:30:55.594Z,14.27
2022-11-04T14:33:35.384Z,18.63
2022-11-04T14:36:21.843Z,13.90
2022-11-04T14:39:04.205Z,16.83
2022-11-04T14:41:49.735Z,17.58
2022-11-04T14:44:38.128Z,17.60
2022-11-04T14:47:29.905Z,17.65
2022-11-04T14:50:05.697Z,19.27
2022-11-04T14:52:46.282Z,17.08
2022-11-04T14:55:15.987Z,19.45
2022-11-04T14:57:52.120Z,18.45
2022-11-04T15:00:23.320Z,17.02
2022-11-04T15:03:10.468Z,18.08
2022-11-04T15:05:46.874Z,19.85
2022-11-04T15:08:42.445Z,18.27
2022-11-04T15:11:41.544Z,19.52
2022-11-04T15:14:21.270Z,20.38
2022-11-04T15:16:55.641Z,19.52
2022-11-04T15:19:36.612Z,19.35
2022-11-04T15:22:06.654Z,19.30
2022-11-04T15:24:35.764Z,18.40
2022-11-04T15:27:06.374Z,22.08
2022-11-04T15:29:34.330Z,20.02
2022-11-04T15:32:05.800Z,18.83
2022-11-04T15:34:35.504Z,23.35
2022-11-04T15:37:05.861Z,23.90
2022-11-04T15:39:44.602Z,20.92
2022-11-04T15:42:36.874Z,22.38
2022-11-04T15:45:33.773Z,15.25
2022-11-04T15:48:25.978Z,16.33
2022-11-04T15:51:01.875Z,18.58
2022-11-04T15:53:29.931Z,16.73
2022-11-04T15:55:57.823Z,13.43
2022-11-04T15:58:25.830Z,19.00
2022-11-04T16:00:57.067Z,20.13
2022-11-04T16:03:25.903Z,18.02
2022-11-04T16:06:05.224Z,15.90
2022-11-04T16:08:34.062Z,20.25
2022-11-04T16:11:20.090Z,19.13
2022-11-04T16:13:48.160Z,15.50
2022-11-04T16:16:25.622Z,19.73
2022-11-04T16:18:54.606Z,17.33
2022-11-04T16:21:32.202Z,16.23
2022-11-04T16:24:08.475Z,17.70
2022-11-04T16:26:46.303Z,18.42
2022-11-04T16:29:32.388Z,17.77
2022-11-04T16:32:21.867Z,21.13
2022-11-04T16:34:56.518Z,16.77
2022-11-04T16:37:25.756Z,18.45
2022-11-04T16:39:53.884Z,21.30
2022-11-04T16:42:22.882Z,19.73
2022-11-04T16:44:55.642Z,20.73
2022-11-04T16:47:25.967Z,27.20
2022-11-04T16:49:53.944Z,19.25
2022-11-04T16:52:26.865Z,18.48
2022-11-04T16:54:58.059Z,19.07
2022-11-04T16:57:26.843Z,21.88
2022-11-04T16:59:55.932Z,23.77
2022-11-04T17:02:31.980Z,19.30
2022-11-04T17:05:00.029Z,18.20
2022-11-04T17:07:47.318Z,20.98
2022-11-04T17:10:25.260Z,18.13
2022-11-04T17:12:53.187Z,20.02
2022-11-04T17:15:21.457Z,22.02
2022-11-04T17:17:49.209Z,22.88
2022-11-04T17:20:18.426Z,20.98
2022-11-04T17:22:47.348Z,26.92
2022-11-04T17:25:26.396Z,19.17
2022-11-04T17:27:54.353Z,20.60
2022-11-04T17:30:23.541Z,21.08
2022-11-04T17:32:51.872Z,19.55
2022-11-04T17:35:19.923Z,16.83
2022-11-04T17:37:50.738Z,21.40
2022-11-04T17:40:20.241Z,18.17
2022-11-04T17:43:11.488Z,21.30
2022-11-04T17:45:44.260Z,22.55
2022-11-04T17:48:14.224Z,22.55
2022-11-04T17:50:42.506Z,19.52
2022-11-04T17:53:10.528Z,20.45
2022-11-04T17:55:40.629Z,19.80
2022-11-04T17:58:08.711Z,21.85
2022-11-04T18:00:36.732Z,19.30
2022-11-04T18:03:06.804Z,21.27
2022-11-04T18:05:35.160Z,24.60
2022-11-04T18:08:02.827Z,22.10
2022-11-04T18:10:30.904Z,22.88
2022-11-04T18:12:58.704Z,20.40
2022-11-04T18:15:26.631Z,22.67
2022-11-04T18:17:54.359Z,21.95
2022-11-04T18:20:22.364Z,27.33
2022-11-04T18:22:50.075Z,27.92
2022-11-04T18:25:18.589Z,26.70
2022-11-04T18:27:48.908Z,24.73
2022-11-04T18:30:17.149Z,26.52
2022-11-04T18:32:44.866Z,24.95
2022-11-04T18:35:12.839Z,24.70
2022-11-04T18:37:46.737Z,27.88
2022-11-04T18:40:16.039Z,23.63
2022-11-04T18:42:44.338Z,25.45
2022-11-04T18:45:12.690Z,23.80
2022-11-04T18:47:40.561Z,27.90
2022-11-04T18:50:08.826Z,24.48
2022-11-04T18:52:36.982Z,25.55
2022-11-04T18:55:05.475Z,24.30
2022-11-04T18:57:33.284Z,26.00
2022-11-04T19:00:01.296Z,28.95
2022-11-04T19:02:29.071Z,22.65
2022-11-04T19:04:57.167Z,21.42
2022-11-04T19:07:24.866Z,20.65
2022-11-04T19:09:54.699Z,21.73
2022-11-04T19:12:40.858Z,25.35
2022-11-04T19:15:09.172Z,21.80
2022-11-04T19:17:37.453Z,20.92
2022-11-04T19:20:11.664Z,21.45
2022-11-04T19:22:40.881Z,23.23
2022-11-04T19:25:09.771Z,21.35
2022-11-04T19:27:37.588Z,22.17
2022-11-04T19:30:06.061Z,21.90
2022-11-04T19:32:33.767Z,19.48
2022-11-04T19:35:01.834Z,21.65
2022-11-04T19:37:29.830Z,24.40
2022-11-04T19:39:57.806Z,20.83
2022-11-04T19:42:44.121Z,23.83
2022-11-04T19:45:12.397Z,27.52
2022-11-04T19:47:40.141Z,20.40
2022-11-04T19:50:08.378Z,23.40
2022-11-04T19:52:36.134Z,23.02
2022-11-04T19:55:04.276Z,20.58
2022-11-04T19:57:31.999Z,22.35
2022-11-04T20:00:00.259Z,25.17
2022-11-04T20:02:28.076Z,22.45
2022-11-04T20:04:56.011Z,26.10
2022-11-04T20:07:23.869Z,19.63
2022-11-04T20:09:53.305Z,25.15
2022-11-04T20:12:39.614Z,19.38
2022-11-04T20:15:08.121Z,23.05
2022-11-04T20:17:35.858Z,23.30
2022-11-04T20:20:04.444Z,23.60
2022-11-04T20:22:32.147Z,21.25
2022-11-04T20:25:00.297Z,20.73
2022-11-04T20:27:27.991Z,21.08
2022-11-04T20:29:55.947Z,22.65
2022-11-04T20:32:23.762Z,17.83
2022-11-04T20:34:51.790Z,21.05
2022-11-04T20:37:19.538Z,22.70
2022-11-04T20:39:48.119Z,22.30
2022-11-04T20:42:15.808Z,21.27
2022-11-04T20:44:44.036Z,21.63
2022-11-04T20:47:11.758Z,26.25
2022-11-04T20:49:40.148Z,27.27
2022-11-04T20:52:08.173Z,22.23
2022-11-04T20:54:36.210Z,24.63
2022-11-04T20:57:03.936Z,24.08
2022-11-04T20:59:31.904Z,26.63
2022-11-04T21:01:59.869Z,24.65
2022-11-04T21:04:33.234Z,22.00
2022-11-04T21:07:02.970Z,22.90
2022-11-04T21:09:30.943Z,27.20
2022-11-04T21:11:58.696Z,21.90
2022-11-04T21:14:26.648Z,23.27
2022-11-04T21:16:54.322Z,26.20
2022-11-04T21:19:22.287Z,26.75
2022-11-04T21:21:50.696Z,23.92
2022-11-04T21:24:18.703Z,22.63
2022-11-04T21:26:46.901Z,26.48
2022-11-04T21:29:17.392Z,23.00
2022-11-04T21:31:46.803Z,27.60
2022-11-04T21:34:15.164Z,25.25
2022-11-04T21:36:42.934Z,23.40
2022-11-04T21:39:11.236Z,24.10
2022-11-04T21:41:39.280Z,23.92
2022-11-04T21:44:09.947Z,25.75
2022-11-04T21:46:38.141Z,21.85
2022-11-04T21:49:06.398Z,22.10
2022-11-04T21:51:34.767Z,22.98
2022-11-04T21:54:07.107Z,25.77
2022-11-04T21:56:35.110Z,24.23
2022-11-04T21:59:04.102Z,23.95
2022-11-04T22:01:32.766Z,22.45
2022-11-04T22:04:02.291Z,23.70
2022-11-04T22:06:35.129Z,24.23
2022-11-04T22:09:06.735Z,24.00
2022-11-04T22:11:37.268Z,24.30
2022-11-04T22:14:08.159Z,21.67
2022-11-04T22:16:38.662Z,19.73
2022-11-04T22:19:08.909Z,22.38
2022-11-04T22:21:43.336Z,26.23
2022-11-04T22:24:18.611Z,24.67
2022-11-04T22:26:47.752Z,21.92
2022-11-04T22:29:15.803Z,24.30
2022-11-04T22:31:44.277Z,29.75
2022-11-04T22:34:12.356Z,22.70
2022-11-04T22:36:40.357Z,26.48
2022-11-04T22:39:15.001Z,26.00
2022-11-04T22:41:46.232Z,22.65
2022-11-04T22:44:14.979Z,27.02
2022-11-04T22:46:42.907Z,22.80
2022-11-04T22:49:10.902Z,23.88
2022-11-04T22:51:38.627Z,22.48
2022-11-04T22:54:08.459Z,22.90
2022-11-04T22:56:37.151Z,27.42
2022-11-04T22:59:05.564Z,21.70
2022-11-04T23:01:34.092Z,25.05
2022-11-04T23:04:02.726Z,25.30
2022-11-04T23:06:31.049Z,23.80
2022-11-04T23:09:00.772Z,22.42
2022-11-04T23:11:48.841Z,22.20
2022-11-04T23:14:35.115Z,27.70
2022-11-04T23:17:26.372Z,22.33
2022-11-04T23:19:54.261Z,21.15
2022-11-04T23:22:40.659Z,24.98
2022-11-04T23:25:09.950Z,28.98
2022-11-04T23:27:59.576Z,23.38
2022-11-04T23:30:30.960Z,21.63
2022-11-04T23:33:07.568Z,20.98
2022-11-04T23:36:07.765Z,23.25
2022-11-04T23:38:35.531Z,25.35
2022-11-04T23:41:26.243Z,25.77
2022-11-04T23:43:53.858Z,21.42
2022-11-04T23:46:43.298Z,24.15
2022-11-04T23:49:30.336Z,21.23
2022-11-04T23:52:16.782Z,21.48
2022-11-04T23:55:03.264Z,21.48
2022-11-04T23:57:50.001Z,22.00
